createdAt,value
2022-08-28T00:00:41.849Z,98551.28
2022-08-28T00:03:13.757Z,98553.88
2022-08-28T00:05:44.813Z,98554.38
2022-08-28T00:08:16.861Z,98546.38
2022-08-28T00:10:47.170Z,98545.84
2022-08-28T00:13:20.624Z,98548.19
2022-08-28T00:15:53.116Z,98546.09
2022-08-28T00:18:22.051Z,98555.66
2022-08-28T00:20:51.739Z,98559.28
2022-08-28T00:23:22.207Z,98560.03
2022-08-28T00:25:49.914Z,98560.53
2022-08-28T00:28:23.491Z,98548.06
2022-08-28T00:30:59.045Z,98556.81
2022-08-28T00:33:34.225Z,98551.09
2022-08-28T00:36:03.938Z,98548.00
2022-08-28T00:38:31.736Z,98553.69
2022-08-28T00:41:03.906Z,98552.69
2022-08-28T00:43:40.117Z,98554.22
2022-08-28T00:46:19.875Z,98556.81
2022-08-28T00:48:48.920Z,98557.84
2022-08-28T00:51:55.686Z,98555.25
2022-08-28T00:54:25.042Z,98560.91
2022-08-28T00:56:55.658Z,98570.72
2022-08-28T00:59:26.109Z,98560.63
2022-08-28T01:01:58.525Z,98564.50
2022-08-28T01:04:29.921Z,98554.16
2022-08-28T01:07:01.460Z,98546.63
2022-08-28T01:09:32.674Z,98557.47
2022-08-28T01:12:09.078Z,98556.19
2022-08-28T01:14:41.600Z,98554.38
2022-08-28T01:17:11.209Z,98553.59
2022-08-28T01:19:52.334Z,98557.69
2022-08-28T01:22:52.831Z,98554.59
2022-08-28T01:25:24.750Z,98553.00
2022-08-28T01:27:52.672Z,98564.88
2022-08-28T01:30:23.492Z,98559.91
2022-08-28T01:32:56.773Z,98560.94
2022-08-28T01:35:31.622Z,98561.91
2022-08-28T01:38:00.705Z,98557.25
2022-08-28T01:40:37.994Z,98561.63
2022-08-28T01:43:20.481Z,98568.81
2022-08-28T01:45:54.007Z,98577.00
2022-08-28T01:48:26.438Z,98581.66
2022-08-28T01:50:55.445Z,98587.06
2022-08-28T01:53:32.143Z,98587.06
2022-08-28T01:56:05.224Z,98582.94
2022-08-28T01:58:37.922Z,98576.44
2022-08-28T02:01:15.813Z,98588.34
2022-08-28T02:03:44.041Z,98582.41
2022-08-28T02:06:15.129Z,98598.94
2022-08-28T02:08:43.060Z,98593.78
2022-08-28T02:13:58.017Z,98605.41
2022-08-28T02:16:27.237Z,98599.19
2022-08-28T02:18:56.847Z,98609.75
2022-08-28T02:21:25.281Z,98610.47
2022-08-28T02:23:53.796Z,98603.94
2022-08-28T02:26:21.930Z,98610.66
2022-08-28T02:28:50.364Z,98608.31
2022-08-28T02:31:18.208Z,98602.16
2022-08-28T02:33:46.202Z,98608.59
2022-08-28T02:36:16.110Z,98602.19
2022-08-28T02:38:47.496Z,98601.69
2022-08-28T02:41:15.284Z,98598.59
2022-08-28T02:43:43.299Z,98607.06
2022-08-28T02:46:11.609Z,98603.16
2022-08-28T02:48:40.653Z,98603.88
2022-08-28T02:51:13.418Z,98605.66
2022-08-28T02:53:42.431Z,98606.69
2022-08-28T02:56:10.553Z,98612.44
2022-08-28T02:58:39.885Z,98609.84
2022-08-28T03:01:11.458Z,98608.53
2022-08-28T03:03:41.455Z,98607.94
2022-08-28T03:06:12.671Z,98609.47
2022-08-28T03:08:42.994Z,98607.38
2022-08-28T03:11:12.113Z,98603.19
2022-08-28T03:13:39.898Z,98622.25
2022-08-28T03:16:08.802Z,98611.44
2022-08-28T03:18:37.056Z,98615.38
2022-08-28T03:21:05.010Z,98620.03
2022-08-28T03:23:32.744Z,98609.13
2022-08-28T03:26:09.035Z,98618.38
2022-08-28T03:28:47.230Z,98625.78
2022-08-28T03:31:19.966Z,98632.97
2022-08-28T03:33:48.934Z,98632.41
2022-08-28T03:36:23.066Z,98625.19
2022-08-28T03:38:53.247Z,98628.00
2022-08-28T03:41:24.486Z,98633.97
2022-08-28T03:43:52.428Z,98630.94
2022-08-28T03:46:24.531Z,98629.84
2022-08-28T03:48:53.970Z,98634.19
2022-08-28T03:51:29.233Z,98629.56
2022-08-28T03:54:03.338Z,98626.97
2022-08-28T03:56:31.346Z,98624.88
2022-08-28T03:59:02.164Z,98621.97
2022-08-28T04:01:30.115Z,98625.28
2022-08-28T04:03:58.102Z,98629.34
2022-08-28T04:06:28.104Z,98626.78
2022-08-28T04:09:00.027Z,98635.25
2022-08-28T04:11:29.204Z,98645.31
2022-08-28T04:13:57.958Z,98646.31
2022-08-28T04:16:25.760Z,98642.44
2022-08-28T04:18:53.585Z,98652.75
2022-08-28T04:21:26.043Z,98652.44
2022-08-28T04:23:54.944Z,98647.28
2022-08-28T04:26:26.878Z,98647.81
2022-08-28T04:28:56.160Z,98655.09
2022-08-28T04:31:32.091Z,98658.19
2022-08-28T04:34:07.008Z,98677.53
2022-08-28T04:36:35.621Z,98673.47
2022-08-28T04:39:08.531Z,98676.31
2022-08-28T04:41:38.607Z,98681.66
2022-08-28T04:44:07.399Z,98688.16
2022-08-28T04:46:36.704Z,98683.28
2022-08-28T04:49:05.869Z,98690.09
2022-08-28T04:51:36.908Z,98687.81
2022-08-28T04:54:08.302Z,98683.44
2022-08-28T04:56:36.564Z,98687.09
2022-08-28T04:59:04.534Z,98684.03
2022-08-28T05:01:32.955Z,98686.38
2022-08-28T05:04:03.922Z,98684.56
2022-08-28T05:06:33.746Z,98691.03
2022-08-28T05:09:04.436Z,98684.06
2022-08-28T05:11:34.592Z,98685.88
2022-08-28T05:14:15.849Z,98691.03
2022-08-28T05:16:50.836Z,98690.81
2022-08-28T05:19:21.722Z,98684.97
2022-08-28T05:21:49.626Z,98701.09
2022-08-28T05:24:18.191Z,98701.72
2022-08-28T05:26:48.257Z,98699.22
2022-08-28T05:29:17.874Z,98694.38
2022-08-28T05:31:46.311Z,98697.47
2022-08-28T05:34:15.298Z,98697.75
2022-08-28T05:36:43.242Z,98690.06
2022-08-28T05:39:13.351Z,98696.28
2022-08-28T05:41:43.477Z,98706.63
2022-08-28T05:44:14.619Z,98701.56
2022-08-28T05:46:47.747Z,98703.16
2022-08-28T05:49:18.417Z,98699.38
2022-08-28T05:51:47.556Z,98704.84
2022-08-28T05:54:16.768Z,98701.25
2022-08-28T05:56:46.328Z,98701.06
2022-08-28T05:59:16.069Z,98702.13
2022-08-28T06:01:49.775Z,98708.13
2022-08-28T06:04:25.374Z,98699.94
2022-08-28T06:06:54.050Z,98708.25
2022-08-28T06:09:29.911Z,98710.13
2022-08-28T06:12:02.399Z,98699.06
2022-08-28T06:14:31.511Z,98708.94
2022-08-28T06:17:01.005Z,98704.84
2022-08-28T06:19:32.776Z,98705.44
2022-08-28T06:22:07.299Z,98711.66
2022-08-28T06:24:36.097Z,98721.56
2022-08-28T06:27:04.382Z,98719.53
2022-08-28T06:29:32.217Z,98718.50
2022-08-28T06:32:04.808Z,98716.72
2022-08-28T06:34:32.733Z,98725.25
2022-08-28T06:37:00.899Z,98726.59
2022-08-28T06:39:28.641Z,98722.44
2022-08-28T06:41:56.327Z,98722.69
2022-08-28T06:44:24.313Z,98725.06
2022-08-28T06:46:54.703Z,98723.50
2022-08-28T06:49:22.997Z,98725.78
2022-08-28T06:51:51.467Z,98724.47
2022-08-28T06:54:22.812Z,98720.03
2022-08-28T06:56:52.670Z,98720.53
2022-08-28T06:59:20.676Z,98726.19
2022-08-28T07:01:49.361Z,98723.53
2022-08-28T07:04:17.300Z,98725.03
2022-08-28T07:06:46.961Z,98713.25
2022-08-28T07:09:14.869Z,98717.63
2022-08-28T07:11:49.132Z,98715.16
2022-08-28T07:14:17.335Z,98716.63
2022-08-28T07:16:45.157Z,98727.13
2022-08-28T07:19:13.817Z,98719.72
2022-08-28T07:21:45.031Z,98732.06
2022-08-28T07:24:15.463Z,98717.03
2022-08-28T07:26:46.288Z,98727.00
2022-08-28T07:29:14.431Z,98727.34
2022-08-28T07:31:48.304Z,98720.78
2022-08-28T07:34:18.679Z,98725.84
2022-08-28T07:36:46.959Z,98734.25
2022-08-28T07:39:16.073Z,98734.94
2022-08-28T07:41:44.645Z,98735.59
2022-08-28T07:44:33.913Z,98729.69
2022-08-28T07:47:05.779Z,98732.09
2022-08-28T07:49:35.166Z,98721.31
2022-08-28T07:52:04.071Z,98724.56
2022-08-28T07:54:31.852Z,98729.06
2022-08-28T07:56:59.526Z,98723.59
2022-08-28T07:59:28.787Z,98713.00
2022-08-28T08:02:05.340Z,98713.25
2022-08-28T08:04:33.335Z,98721.94
2022-08-28T08:07:03.553Z,98715.41
2022-08-28T08:09:31.617Z,98714.38
2022-08-28T08:12:00.325Z,98711.28
2022-08-28T08:14:28.660Z,98720.84
2022-08-28T08:16:56.360Z,98711.91
2022-08-28T08:19:24.233Z,98715.28
2022-08-28T08:21:55.194Z,98720.41
2022-08-28T08:24:26.533Z,98717.25
2022-08-28T08:27:00.801Z,98713.94
2022-08-28T08:29:35.666Z,98714.00
2022-08-28T08:32:10.630Z,98711.63
2022-08-28T08:34:42.825Z,98717.13
2022-08-28T08:37:11.830Z,98707.78
2022-08-28T08:39:42.171Z,98712.47
2022-08-28T08:42:26.079Z,98703.91
2022-08-28T08:44:58.593Z,98707.66
2022-08-28T08:47:47.793Z,98705.00
2022-08-28T08:50:34.481Z,98708.72
2022-08-28T08:53:26.851Z,98707.25
2022-08-28T08:55:58.315Z,98701.91
2022-08-28T08:58:41.183Z,98697.78
2022-08-28T09:01:27.505Z,98700.72
2022-08-28T09:04:09.525Z,98701.97
2022-08-28T09:07:39.581Z,98694.91
2022-08-28T09:10:12.410Z,98691.38
2022-08-28T09:13:16.942Z,98700.44
2022-08-28T09:15:50.657Z,98695.00
2022-08-28T09:18:26.242Z,98695.16
2022-08-28T09:20:58.546Z,98693.41
2022-08-28T09:23:29.059Z,98692.75
2022-08-28T09:26:03.804Z,98691.50
2022-08-28T09:28:40.902Z,98690.22
2022-08-28T09:31:13.223Z,98685.28
2022-08-28T09:33:51.859Z,98686.66
2022-08-28T09:36:32.531Z,98685.25
2022-08-28T09:39:12.184Z,98684.16
2022-08-28T09:42:07.602Z,98688.78
2022-08-28T09:44:51.832Z,98685.34
2022-08-28T09:47:55.032Z,98682.28
2022-08-28T09:50:37.492Z,98683.22
2022-08-28T09:53:11.621Z,98678.53
2022-08-28T09:55:57.222Z,98676.63
2022-08-28T09:58:37.471Z,98676.78
2022-08-28T10:01:44.861Z,98672.25
2022-08-28T10:04:40.528Z,98675.91
2022-08-28T10:07:57.931Z,98667.81
2022-08-28T10:10:55.483Z,98669.91
2022-08-28T10:13:38.797Z,98666.31
2022-08-28T10:16:54.730Z,98653.09
2022-08-28T10:19:58.359Z,98650.41
2022-08-28T10:22:53.902Z,98649.63
2022-08-28T10:25:33.336Z,98661.28
2022-08-28T10:28:12.456Z,98647.75
2022-08-28T10:30:55.165Z,98643.56
2022-08-28T10:33:58.766Z,98632.44
2022-08-28T10:36:34.437Z,98636.94
2022-08-28T10:39:45.325Z,98628.06
2022-08-28T10:42:33.750Z,98626.13
2022-08-28T10:45:16.118Z,98612.56
2022-08-28T10:47:52.097Z,98606.97
2022-08-28T10:50:26.372Z,98604.91
2022-08-28T10:53:11.915Z,98603.59
2022-08-28T10:55:57.246Z,98613.97
2022-08-28T10:58:27.572Z,98611.03
2022-08-28T11:01:05.886Z,98597.22
2022-08-28T11:03:46.331Z,98607.78
2022-08-28T11:06:32.379Z,98601.41
2022-08-28T11:09:24.905Z,98605.16
2022-08-28T11:12:19.898Z,98605.06
2022-08-28T11:14:53.564Z,98597.69
2022-08-28T11:17:27.833Z,98598.59
2022-08-28T11:20:25.122Z,98594.94
2022-08-28T11:23:20.291Z,98584.97
2022-08-28T11:26:02.349Z,98585.63
2022-08-28T11:28:35.910Z,98581.03
2022-08-28T11:31:06.399Z,98589.91
2022-08-28T11:33:48.514Z,98583.44
2022-08-28T11:36:21.694Z,98583.66
2022-08-28T11:38:52.070Z,98585.00
2022-08-28T11:41:39.114Z,98578.75
2022-08-28T11:44:09.587Z,98577.75
2022-08-28T11:46:45.591Z,98580.16
2022-08-28T11:49:33.944Z,98580.16
2022-08-28T11:52:19.412Z,98583.78
2022-08-28T11:55:08.578Z,98577.50
2022-08-28T11:57:45.644Z,98577.50
2022-08-28T12:00:35.406Z,98580.03
2022-08-28T12:03:24.480Z,98567.06
2022-08-28T12:05:57.118Z,98570.69
2022-08-28T12:08:53.442Z,98566.00
2022-08-28T12:11:39.681Z,98567.22
2022-08-28T12:14:11.882Z,98562.81
2022-08-28T12:17:26.861Z,98556.91
2022-08-28T12:20:10.702Z,98559.22
2022-08-28T12:22:53.117Z,98556.91
2022-08-28T12:25:35.320Z,98553.47
2022-08-28T12:28:18.817Z,98555.16
2022-08-28T12:31:20.537Z,98540.03
2022-08-28T12:34:04.567Z,98544.16
2022-08-28T12:36:33.865Z,98534.97
2022-08-28T12:39:01.700Z,98539.91
2022-08-28T12:41:30.616Z,98530.56
2022-08-28T12:44:00.385Z,98536.28
2022-08-28T12:46:37.660Z,98545.50
2022-08-28T12:49:30.899Z,98532.34
2022-08-28T12:52:19.002Z,98533.31
2022-08-28T12:54:49.574Z,98538.72
2022-08-28T12:57:26.601Z,98538.16
2022-08-28T13:00:06.465Z,98533.66
2022-08-28T13:02:35.088Z,98536.97
2022-08-28T13:05:29.209Z,98532.25
2022-08-28T13:08:01.054Z,98532.34
2022-08-28T13:10:47.380Z,98529.16
2022-08-28T13:13:23.197Z,98532.13
2022-08-28T13:16:01.490Z,98527.41
2022-08-28T13:18:39.335Z,98521.59
2022-08-28T13:21:33.409Z,98518.34
2022-08-28T13:24:22.243Z,98518.56
2022-08-28T13:27:20.331Z,98516.34
2022-08-28T13:30:22.169Z,98515.25
2022-08-28T13:33:20.141Z,98516.66
2022-08-28T13:35:48.884Z,98519.25
2022-08-28T13:38:22.590Z,98512.75
2022-08-28T13:40:59.420Z,98519.59
2022-08-28T13:43:42.335Z,98514.63
2022-08-28T13:46:10.411Z,98501.81
2022-08-28T13:48:38.393Z,98505.00
2022-08-28T13:51:14.239Z,98501.81
2022-08-28T13:53:50.594Z,98499.72
2022-08-28T13:56:21.846Z,98501.47
2022-08-28T13:58:57.645Z,98498.28
2022-08-28T14:01:49.072Z,98497.19
2022-08-28T14:04:16.998Z,98497.09
2022-08-28T14:06:44.744Z,98498.31
2022-08-28T14:09:15.350Z,98489.88
2022-08-28T14:11:47.642Z,98491.94
2022-08-28T14:14:16.053Z,98479.22
2022-08-28T14:16:45.603Z,98488.00
2022-08-28T14:19:13.661Z,98483.94
2022-08-28T14:21:41.901Z,98488.00
2022-08-28T14:24:09.811Z,98482.31
2022-08-28T14:26:38.174Z,98477.59
2022-08-28T14:29:09.412Z,98483.00
2022-08-28T14:31:40.814Z,98478.75
2022-08-28T14:34:14.750Z,98488.72
2022-08-28T14:36:43.423Z,98483.88
2022-08-28T14:39:13.131Z,98488.28
2022-08-28T14:41:47.113Z,98496.50
2022-08-28T14:44:15.970Z,98491.00
2022-08-28T14:46:46.331Z,98494.06
2022-08-28T14:49:16.685Z,98492.25
2022-08-28T14:51:46.928Z,98493.97
2022-08-28T14:54:18.584Z,98491.09
2022-08-28T14:56:47.521Z,98496.16
2022-08-28T14:59:25.033Z,98482.66
2022-08-28T15:01:58.115Z,98479.34
2022-08-28T15:04:34.352Z,98486.69
2022-08-28T15:07:08.515Z,98481.28
2022-08-28T15:09:41.216Z,98481.50
2022-08-28T15:12:09.525Z,98474.75
2022-08-28T15:14:37.461Z,98479.72
2022-08-28T15:17:05.775Z,98483.88
2022-08-28T15:19:33.795Z,98485.19
2022-08-28T15:22:02.038Z,98483.53
2022-08-28T15:24:34.560Z,98489.38
2022-08-28T15:27:03.279Z,98479.31
2022-08-28T15:29:31.058Z,98486.41
2022-08-28T15:32:00.790Z,98485.00
2022-08-28T15:34:29.153Z,98486.06
2022-08-28T15:36:58.594Z,98493.16
2022-08-28T15:39:47.400Z,98499.47
2022-08-28T15:42:15.388Z,98493.88
2022-08-28T15:44:43.589Z,98503.72
2022-08-28T15:47:13.799Z,98502.84
2022-08-28T15:49:46.780Z,98516.38
2022-08-28T15:52:19.161Z,98511.09
2022-08-28T15:54:48.275Z,98508.75
2022-08-28T15:57:17.646Z,98508.50
2022-08-28T15:59:49.709Z,98502.81
2022-08-28T16:02:22.597Z,98498.84
2022-08-28T16:04:51.234Z,98496.41
2022-08-28T16:07:20.855Z,98495.06
2022-08-28T16:09:49.694Z,98488.13
2022-08-28T16:12:18.620Z,98488.47
2022-08-28T16:14:46.958Z,98494.97
2022-08-28T16:17:15.127Z,98497.91
2022-08-28T16:19:46.108Z,98508.63
2022-08-28T16:22:17.604Z,98511.84
2022-08-28T16:24:51.703Z,98513.41
2022-08-28T16:27:19.878Z,98510.31
2022-08-28T16:29:52.718Z,98521.72
2022-08-28T16:32:20.883Z,98524.03
2022-08-28T16:34:49.538Z,98522.63
2022-08-28T16:37:20.830Z,98521.97
2022-08-28T16:39:56.074Z,98520.91
2022-08-28T16:42:24.795Z,98514.63
2022-08-28T16:44:59.802Z,98526.06
2022-08-28T16:47:31.808Z,98528.56
2022-08-28T16:50:02.492Z,98532.44
2022-08-28T16:52:30.332Z,98528.47
2022-08-28T16:54:59.937Z,98530.81
2022-08-28T16:57:28.161Z,98534.53
2022-08-28T16:59:56.078Z,98547.38
2022-08-28T17:02:26.412Z,98559.84
2022-08-28T17:04:55.876Z,98562.66
2022-08-28T17:07:23.618Z,98563.88
2022-08-28T17:09:51.420Z,98562.03
2022-08-28T17:12:19.353Z,98565.91
2022-08-28T17:14:47.016Z,98575.00
2022-08-28T17:17:15.147Z,98586.25
2022-08-28T17:19:43.018Z,98596.72
2022-08-28T17:22:30.221Z,98591.81
2022-08-28T17:25:09.533Z,98600.88
2022-08-28T17:27:38.437Z,98616.25
2022-08-28T17:30:09.278Z,98619.31
2022-08-28T17:32:37.369Z,98631.50
2022-08-28T17:35:05.623Z,98623.47
2022-08-28T17:37:33.383Z,98630.72
2022-08-28T17:40:01.191Z,98634.06
2022-08-28T17:42:29.098Z,98628.03
2022-08-28T17:44:56.780Z,98637.38
2022-08-28T17:47:26.411Z,98645.97
2022-08-28T17:50:00.568Z,98643.91
2022-08-28T17:52:29.585Z,98659.88
2022-08-28T17:54:57.455Z,98665.06
2022-08-28T17:57:25.300Z,98665.38
2022-08-28T17:59:53.409Z,98673.63
2022-08-28T18:02:21.317Z,98686.34
2022-08-28T18:04:50.352Z,98695.06
2022-08-28T18:07:18.375Z,98712.28
2022-08-28T18:09:46.470Z,98721.41
2022-08-28T18:12:14.510Z,98706.78
2022-08-28T18:14:42.507Z,98707.44
2022-08-28T18:17:11.490Z,98704.84
2022-08-28T18:19:40.350Z,98704.53
2022-08-28T18:22:11.755Z,98707.44
2022-08-28T18:24:40.866Z,98700.47
2022-08-28T18:27:09.563Z,98697.22
2022-08-28T18:29:39.686Z,98707.47
2022-08-28T18:32:08.191Z,98705.75
2022-08-28T18:34:37.089Z,98717.56
2022-08-28T18:37:05.293Z,98725.91
2022-08-28T18:39:36.069Z,98721.91
2022-08-28T18:42:04.306Z,98722.78
2022-08-28T18:44:34.039Z,98718.94
2022-08-28T18:47:02.266Z,98727.47
2022-08-28T18:49:30.284Z,98724.78
2022-08-28T18:51:58.303Z,98728.59
2022-08-28T18:54:26.365Z,98733.63
2022-08-28T18:57:01.444Z,98733.25
2022-08-28T18:59:33.339Z,98739.84
2022-08-28T19:04:29.127Z,98737.88
2022-08-28T19:06:56.874Z,98725.72
2022-08-28T19:09:31.709Z,98732.50
2022-08-28T19:12:00.697Z,98743.63
2022-08-28T19:14:28.518Z,98749.94
2022-08-28T19:16:56.669Z,98757.59
2022-08-28T19:19:24.717Z,98756.78
2022-08-28T19:21:52.473Z,98760.44
2022-08-28T19:24:22.473Z,98763.19
2022-08-28T19:26:50.315Z,98758.47
2022-08-28T19:29:19.368Z,98766.47
2022-08-28T19:31:47.096Z,98776.75
2022-08-28T19:34:14.899Z,98775.03
2022-08-28T19:36:42.646Z,98773.03
2022-08-28T19:39:11.071Z,98773.09
2022-08-28T19:41:39.226Z,98773.38
2022-08-28T19:44:07.853Z,98777.63
2022-08-28T19:46:38.679Z,98772.13
2022-08-28T19:49:07.551Z,98776.63
2022-08-28T19:51:38.234Z,98778.81
2022-08-28T19:54:11.125Z,98784.31
2022-08-28T19:56:40.972Z,98788.34
2022-08-28T19:59:09.351Z,98787.72
2022-08-28T20:01:43.625Z,98786.16
2022-08-28T20:04:16.725Z,98783.91
2022-08-28T20:06:45.769Z,98783.91
2022-08-28T20:09:14.206Z,98774.28
2022-08-28T20:11:45.041Z,98774.28
2022-08-28T20:14:15.248Z,98770.69
2022-08-28T20:16:46.259Z,98770.97
2022-08-28T20:19:15.301Z,98771.25
2022-08-28T20:21:45.826Z,98774.41
2022-08-28T20:24:21.897Z,98776.78
2022-08-28T20:26:50.922Z,98774.78
2022-08-28T20:29:19.219Z,98784.00
2022-08-28T20:31:48.449Z,98791.16
2022-08-28T20:34:19.407Z,98795.16
2022-08-28T20:36:47.856Z,98798.09
2022-08-28T20:39:16.583Z,98799.97
2022-08-28T20:41:46.109Z,98798.44
2022-08-28T20:44:18.857Z,98802.88
2022-08-28T20:46:51.160Z,98804.19
2022-08-28T20:49:22.292Z,98807.06
2022-08-28T20:51:54.512Z,98802.66
2022-08-28T20:54:30.356Z,98799.00
2022-08-28T20:57:03.611Z,98807.84
2022-08-28T20:59:37.229Z,98813.38
2022-08-28T21:02:13.115Z,98829.34
2022-08-28T21:04:43.329Z,98822.94
2022-08-28T21:07:13.176Z,98837.84
2022-08-28T21:10:06.025Z,98841.53
2022-08-28T21:12:29.733Z,98839.13
2022-08-28T21:14:58.559Z,98841.75
2022-08-28T21:17:29.124Z,98851.94
2022-08-28T21:20:01.777Z,98858.97
2022-08-28T21:22:31.600Z,98855.09
2022-08-28T21:24:59.573Z,98861.06
2022-08-28T21:27:27.429Z,98861.09
2022-08-28T21:29:58.369Z,98863.19
2022-08-28T21:32:28.607Z,98862.97
2022-08-28T21:34:56.629Z,98855.19
2022-08-28T21:37:24.646Z,98862.50
2022-08-28T21:39:53.792Z,98865.13
2022-08-28T21:42:25.149Z,98864.13
2022-08-28T21:44:54.558Z,98867.28
2022-08-28T21:47:24.292Z,98868.34
2022-08-28T21:49:55.153Z,98861.09
2022-08-28T21:52:29.831Z,98871.22
2022-08-28T21:55:00.727Z,98889.44
2022-08-28T21:57:29.566Z,98896.28
2022-08-28T21:59:58.555Z,98930.31
2022-08-28T22:02:27.041Z,98934.25
2022-08-28T22:04:55.105Z,98934.56
2022-08-28T22:07:22.892Z,98946.78
2022-08-28T22:09:50.833Z,98939.75
2022-08-28T22:12:18.726Z,98944.66
2022-08-28T22:14:46.515Z,98961.50
2022-08-28T22:17:15.198Z,98954.25
2022-08-28T22:19:43.326Z,98949.56
2022-08-28T22:22:34.714Z,98951.66
2022-08-28T22:25:02.625Z,98956.38
2022-08-28T22:27:32.066Z,98977.44
2022-08-28T22:29:59.973Z,98978.75
2022-08-28T22:32:28.134Z,98992.75
2022-08-28T22:34:55.922Z,99001.88
2022-08-28T22:37:23.776Z,99013.53
2022-08-28T22:39:52.111Z,99035.09
2022-08-28T22:42:19.869Z,99018.78
2022-08-28T22:44:47.640Z,99030.72
2022-08-28T22:47:15.479Z,99052.50
2022-08-28T22:49:47.126Z,99061.34
2022-08-28T22:52:15.541Z,99062.34
2022-08-28T22:54:43.368Z,99068.50
2022-08-28T22:57:11.741Z,99077.84
2022-08-28T22:59:39.415Z,99088.94
2022-08-28T23:02:07.856Z,99099.75
2022-08-28T23:04:35.569Z,99095.34
2022-08-28T23:07:03.877Z,99086.06
2022-08-28T23:09:31.775Z,99062.69
2022-08-28T23:12:07.881Z,99052.06
2022-08-28T23:14:35.625Z,99064.25
2022-08-28T23:17:03.435Z,99067.09
2022-08-28T23:19:32.162Z,99076.19
2022-08-28T23:22:00.281Z,99077.00
2022-08-28T23:24:28.099Z,99081.44
2022-08-28T23:26:55.946Z,99082.47
2022-08-28T23:29:23.707Z,99072.63
2022-08-28T23:31:51.426Z,99067.91
2022-08-28T23:34:19.365Z,99060.91
2022-08-28T23:36:47.477Z,99073.38
2022-08-28T23:39:15.885Z,99070.22
2022-08-28T23:41:43.560Z,99073.09
2022-08-28T23:44:11.393Z,99069.97
2022-08-28T23:46:41.175Z,99064.22
2022-08-28T23:49:11.533Z,99057.50
2022-08-28T23:51:40.925Z,99054.91
2022-08-28T23:54:10.405Z,99054.91
2022-08-28T23:56:38.917Z,99055.41
2022-08-28T23:59:07.023Z,99055.19
